createdAt,value
2022-09-12T00:01:27.183Z,15.79
2022-09-12T00:03:59.679Z,15.82
2022-09-12T00:06:37.574Z,15.83
2022-09-12T00:09:13.225Z,15.57
2022-09-12T00:11:45.879Z,15.51
2022-09-12T00:14:18.377Z,15.61
2022-09-12T00:16:46.654Z,15.54
2022-09-12T00:19:14.878Z,15.64
2022-09-12T00:21:43.100Z,15.57
2022-09-12T00:24:11.619Z,15.64
2022-09-12T00:26:40.096Z,15.58
2022-09-12T00:29:08.244Z,15.55
2022-09-12T00:31:36.884Z,15.50
2022-09-12T00:34:05.099Z,15.42
2022-09-12T00:36:33.247Z,15.51
2022-09-12T00:39:01.614Z,15.39
2022-09-12T00:41:39.354Z,15.34
2022-09-12T00:44:10.318Z,15.27
2022-09-12T00:46:52.550Z,15.23
2022-09-12T00:49:45.635Z,15.12
2022-09-12T00:52:20.831Z,15.16
2022-09-12T00:55:17.354Z,15.20
2022-09-12T00:58:05.021Z,15.10
2022-09-12T01:00:33.763Z,15.03
2022-09-12T01:03:11.422Z,14.98
2022-09-12T01:05:46.781Z,15.00
2022-09-12T01:08:15.105Z,14.91
2022-09-12T01:10:44.063Z,14.89
2022-09-12T01:13:13.134Z,14.78
2022-09-12T01:15:41.671Z,14.73
2022-09-12T01:18:21.700Z,14.79
2022-09-12T01:20:58.049Z,14.72
2022-09-12T01:24:25.031Z,14.72
2022-09-12T01:27:40.723Z,14.61
2022-09-12T01:30:34.004Z,14.57
2022-09-12T01:33:47.743Z,14.46
2022-09-12T01:36:58.576Z,14.50
2022-09-12T01:40:00.151Z,14.46
2022-09-12T01:43:16.078Z,14.44
2022-09-12T01:45:47.659Z,14.44
2022-09-12T01:48:36.251Z,14.32
2022-09-12T01:51:36.182Z,14.18
2022-09-12T01:54:17.418Z,14.24
2022-09-12T01:56:52.371Z,14.25
2022-09-12T01:59:33.407Z,13.92
2022-09-12T02:02:18.184Z,14.16
2022-09-12T02:04:57.948Z,14.09
2022-09-12T02:07:35.881Z,14.18
2022-09-12T02:10:32.538Z,14.24
2022-09-12T02:13:19.097Z,14.11
2022-09-12T02:15:56.769Z,14.15
2022-09-12T02:18:30.198Z,14.10
2022-09-12T02:21:01.573Z,14.06
2022-09-12T02:23:33.090Z,13.92
2022-09-12T02:26:11.070Z,13.87
2022-09-12T02:28:44.420Z,13.97
2022-09-12T02:31:34.841Z,13.88
2022-09-12T02:34:18.397Z,13.87
2022-09-12T02:36:54.677Z,13.84
2022-09-12T02:39:22.852Z,13.97
2022-09-12T02:41:55.899Z,13.86
2022-09-12T02:44:27.278Z,13.86
2022-09-12T02:47:05.281Z,13.73
2022-09-12T02:49:33.708Z,13.78
2022-09-12T02:52:02.900Z,13.86
2022-09-12T02:54:31.586Z,13.83
2022-09-12T02:56:59.706Z,13.89
2022-09-12T02:59:28.627Z,13.88
2022-09-12T03:02:06.468Z,13.87
2022-09-12T03:05:33.712Z,13.78
2022-09-12T03:09:00.412Z,13.91
2022-09-12T03:12:11.833Z,14.02
2022-09-12T03:15:08.182Z,14.08
2022-09-12T03:18:04.462Z,14.13
2022-09-12T03:20:45.944Z,14.17
2022-09-12T03:24:00.383Z,14.19
2022-09-12T03:26:56.644Z,14.18
2022-09-12T03:29:28.013Z,14.30
2022-09-12T03:31:58.717Z,14.38
2022-09-12T03:34:28.552Z,14.39
2022-09-12T03:36:57.010Z,14.44
2022-09-12T03:39:27.028Z,14.41
2022-09-12T03:41:56.670Z,14.44
2022-09-12T03:44:25.534Z,14.49
2022-09-12T03:46:53.678Z,14.52
2022-09-12T03:49:21.843Z,14.49
2022-09-12T03:51:49.982Z,14.57
2022-09-12T03:54:18.128Z,14.40
2022-09-12T03:56:46.310Z,14.38
2022-09-12T03:59:14.455Z,14.26
2022-09-12T04:01:42.603Z,14.39
2022-09-12T04:04:10.730Z,14.35
2022-09-12T04:06:38.965Z,14.29
2022-09-12T04:09:07.241Z,13.89
2022-09-12T04:11:35.936Z,14.10
2022-09-12T04:14:04.261Z,13.87
2022-09-12T04:16:32.978Z,13.99
2022-09-12T04:19:01.268Z,13.88
2022-09-12T04:21:29.598Z,13.83
2022-09-12T04:23:57.719Z,13.90
2022-09-12T04:26:25.918Z,13.86
2022-09-12T04:28:55.109Z,13.49
2022-09-12T04:31:24.170Z,13.68
2022-09-12T04:34:01.098Z,13.70
2022-09-12T04:36:30.287Z,13.50
2022-09-12T04:39:00.105Z,13.72
2022-09-12T04:41:32.843Z,13.77
2022-09-12T04:44:05.636Z,13.56
2022-09-12T04:46:38.664Z,13.68
2022-09-12T04:49:07.170Z,13.78
2022-09-12T04:51:38.572Z,13.58
2022-09-12T04:54:12.033Z,13.69
2022-09-12T04:56:43.610Z,13.55
2022-09-12T04:59:15.452Z,13.37
2022-09-12T05:01:43.874Z,13.37
2022-09-12T05:04:13.559Z,13.58
2022-09-12T05:06:42.423Z,13.44
2022-09-12T05:09:14.281Z,13.45
2022-09-12T05:12:05.036Z,13.70
2022-09-12T05:14:34.572Z,13.78
2022-09-12T05:17:05.999Z,13.67
2022-09-12T05:19:34.201Z,13.56
2022-09-12T05:22:02.582Z,13.75
2022-09-12T05:24:30.721Z,13.74
2022-09-12T05:26:59.164Z,13.75
2022-09-12T05:29:27.282Z,13.54
2022-09-12T05:31:55.630Z,13.71
2022-09-12T05:34:23.800Z,13.75
2022-09-12T05:36:51.960Z,13.64
2022-09-12T05:39:20.416Z,13.48
2022-09-12T05:41:48.664Z,13.65
2022-09-12T05:44:17.113Z,13.84
2022-09-12T05:46:50.409Z,13.80
2022-09-12T05:49:18.859Z,13.57
2022-09-12T05:51:47.194Z,13.73
2022-09-12T05:54:20.457Z,13.46
2022-09-12T05:56:49.198Z,13.56
2022-09-12T05:59:21.389Z,13.82
2022-09-12T06:01:49.804Z,14.09
2022-09-12T06:04:18.175Z,14.06
2022-09-12T06:06:46.773Z,13.88
2022-09-12T06:09:16.836Z,13.86
2022-09-12T06:11:46.982Z,13.52
2022-09-12T06:14:17.610Z,13.52
2022-09-12T06:16:47.294Z,13.69
2022-09-12T06:19:21.769Z,13.87
2022-09-12T06:21:51.634Z,13.79
2022-09-12T06:24:21.389Z,13.73
2022-09-12T06:26:52.656Z,13.84
2022-09-12T06:29:21.097Z,14.04
2022-09-12T06:31:49.236Z,13.90
2022-09-12T06:34:17.456Z,13.92
2022-09-12T06:36:48.784Z,13.88
2022-09-12T06:39:20.657Z,14.05
2022-09-12T06:41:51.699Z,14.16
2022-09-12T06:44:22.871Z,14.33
2022-09-12T06:46:51.496Z,14.43
2022-09-12T06:49:19.619Z,14.38
2022-09-12T06:51:47.798Z,14.20
2022-09-12T06:54:17.313Z,14.49
2022-09-12T06:56:45.805Z,14.60
2022-09-12T06:59:14.056Z,14.65
2022-09-12T07:01:42.366Z,14.66
2022-09-12T07:04:10.924Z,14.71
2022-09-12T07:06:42.144Z,14.61
2022-09-12T07:09:14.194Z,14.61
2022-09-12T07:11:43.426Z,14.69
2022-09-12T07:14:14.493Z,14.84
2022-09-12T07:16:43.221Z,15.03
2022-09-12T07:19:12.137Z,15.03
2022-09-12T07:21:41.993Z,15.14
2022-09-12T07:24:11.098Z,15.12
2022-09-12T07:26:42.249Z,15.19
2022-09-12T07:29:36.005Z,15.25
2022-09-12T07:32:05.912Z,15.36
2022-09-12T07:34:35.261Z,15.28
2022-09-12T07:37:03.574Z,15.57
2022-09-12T07:39:32.444Z,15.73
2022-09-12T07:42:00.603Z,15.43
2022-09-12T07:44:29.449Z,15.64
2022-09-12T07:46:57.644Z,15.84
2022-09-12T07:49:25.933Z,15.61
2022-09-12T07:51:54.067Z,15.72
2022-09-12T07:54:22.737Z,15.70
2022-09-12T07:56:50.859Z,15.86
2022-09-12T07:59:41.560Z,15.71
2022-09-12T08:02:16.801Z,16.08
2022-09-12T08:04:47.504Z,16.15
2022-09-12T08:07:18.120Z,16.34
2022-09-12T08:09:46.550Z,16.47
2022-09-12T08:12:16.637Z,16.10
2022-09-12T08:14:44.758Z,16.40
2022-09-12T08:17:14.349Z,16.56
2022-09-12T08:19:43.029Z,16.70
2022-09-12T08:22:12.006Z,16.96
2022-09-12T08:24:40.162Z,17.18
2022-09-12T08:27:08.583Z,16.96
2022-09-12T08:29:36.699Z,16.98
2022-09-12T08:32:04.953Z,16.80
2022-09-12T08:34:33.146Z,16.61
2022-09-12T08:37:01.330Z,16.75
2022-09-12T08:39:29.493Z,17.16
2022-09-12T08:42:03.310Z,17.06
2022-09-12T08:44:41.962Z,17.47
2022-09-12T08:47:36.277Z,17.63
2022-09-12T08:50:10.438Z,18.25
2022-09-12T08:52:58.539Z,17.73
2022-09-12T08:55:33.045Z,16.97
2022-09-12T08:58:14.716Z,16.92
2022-09-12T09:01:28.826Z,18.64
2022-09-12T09:04:14.278Z,18.26
2022-09-12T09:07:07.267Z,18.02
2022-09-12T09:10:08.038Z,18.33
2022-09-12T09:13:36.658Z,18.02
2022-09-12T09:16:28.066Z,17.88
2022-09-12T09:19:12.685Z,17.05
2022-09-12T09:21:52.544Z,17.47
2022-09-12T09:24:42.803Z,17.89
2022-09-12T09:27:40.394Z,18.48
2022-09-12T09:30:19.995Z,19.11
2022-09-12T09:32:56.190Z,20.12
2022-09-12T09:35:44.921Z,20.70
2022-09-12T09:38:22.997Z,20.11
2022-09-12T09:41:07.167Z,19.25
2022-09-12T09:43:38.766Z,18.56
2022-09-12T09:46:07.715Z,18.40
2022-09-12T09:48:46.022Z,18.24
2022-09-12T09:51:27.063Z,18.14
2022-09-12T09:54:21.218Z,18.75
2022-09-12T09:56:49.911Z,19.14
2022-09-12T09:59:36.351Z,18.22
2022-09-12T10:02:24.411Z,17.97
2022-09-12T10:04:58.890Z,18.56
2022-09-12T10:07:27.414Z,19.38
2022-09-12T10:10:16.220Z,20.25
2022-09-12T10:12:45.269Z,20.85
2022-09-12T10:15:29.535Z,21.47
2022-09-12T10:17:58.925Z,20.74
2022-09-12T10:20:44.655Z,20.44
2022-09-12T10:23:29.517Z,20.12
2022-09-12T10:26:01.636Z,19.73
2022-09-12T10:28:40.091Z,19.56
2022-09-12T10:31:29.198Z,19.16
2022-09-12T10:34:01.363Z,18.60
2022-09-12T10:36:40.861Z,19.03
2022-09-12T10:39:19.654Z,19.10
2022-09-12T10:41:47.816Z,18.96
2022-09-12T10:44:26.183Z,20.29
2022-09-12T10:46:55.815Z,20.72
2022-09-12T10:49:31.825Z,20.41
2022-09-12T10:52:23.330Z,20.52
2022-09-12T10:54:52.694Z,21.44
2022-09-12T10:57:40.631Z,20.62
2022-09-12T11:00:20.118Z,20.01
2022-09-12T11:03:19.383Z,21.26
2022-09-12T11:06:01.543Z,22.37
2022-09-12T11:08:55.248Z,22.82
2022-09-12T11:11:45.019Z,22.87
2022-09-12T11:15:03.365Z,20.56
2022-09-12T11:17:52.070Z,21.13
2022-09-12T11:20:53.829Z,21.61
2022-09-12T11:24:02.336Z,21.63
2022-09-12T11:27:04.090Z,21.58
2022-09-12T11:29:59.558Z,21.51
2022-09-12T11:32:39.326Z,21.35
2022-09-12T11:38:32.476Z,21.43
2022-09-12T11:41:23.982Z,22.39
2022-09-12T11:44:22.391Z,22.55
2022-09-12T11:46:52.082Z,22.08
2022-09-12T11:49:36.202Z,22.04
2022-09-12T11:52:23.876Z,21.95
2022-09-12T11:55:05.731Z,21.46
2022-09-12T11:57:54.310Z,20.71
2022-09-12T12:00:32.219Z,21.92
2022-09-12T12:03:30.710Z,22.96
2022-09-12T12:06:10.742Z,23.41
2022-09-12T12:08:42.914Z,23.61
2022-09-12T12:11:38.173Z,23.46
2022-09-12T12:14:18.034Z,23.90
2022-09-12T12:16:49.472Z,24.14
2022-09-12T12:19:17.471Z,24.03
2022-09-12T12:21:49.223Z,24.18
2022-09-12T12:24:26.051Z,22.73
2022-09-12T12:27:02.038Z,23.64
2022-09-12T12:29:44.642Z,22.66
2022-09-12T12:32:22.254Z,23.83
2022-09-12T12:34:50.625Z,24.03
2022-09-12T12:37:29.883Z,24.25
2022-09-12T12:40:07.486Z,24.30
2022-09-12T12:42:35.596Z,24.25
2022-09-12T12:45:29.204Z,24.34
2022-09-12T12:48:08.796Z,23.95
2022-09-12T12:50:37.273Z,24.13
2022-09-12T12:53:25.104Z,23.88
2022-09-12T12:55:57.684Z,22.39
2022-09-12T12:58:40.694Z,23.24
2022-09-12T13:01:22.993Z,21.32
2022-09-12T13:03:54.172Z,22.43
2022-09-12T13:06:39.753Z,21.64
2022-09-12T13:09:32.404Z,22.57
2022-09-12T13:12:08.683Z,22.11
2022-09-12T13:14:51.901Z,22.15
2022-09-12T13:17:30.717Z,23.05
2022-09-12T13:20:28.396Z,23.42
2022-09-12T13:22:58.414Z,23.31
2022-09-12T13:25:37.365Z,22.84
2022-09-12T13:28:29.234Z,21.75
2022-09-12T13:31:24.926Z,21.86
2022-09-12T13:34:00.011Z,21.44
2022-09-12T13:36:57.406Z,22.07
2022-09-12T13:39:46.371Z,22.15
2022-09-12T13:42:45.100Z,22.77
2022-09-12T13:45:28.992Z,22.14
2022-09-12T13:48:02.502Z,21.12
2022-09-12T13:50:42.951Z,21.34
2022-09-12T13:53:23.437Z,21.33
2022-09-12T13:56:00.338Z,21.78
2022-09-12T13:58:35.129Z,22.17
2022-09-12T14:01:15.261Z,22.76
2022-09-12T14:04:37.338Z,21.08
2022-09-12T14:07:20.878Z,21.30
2022-09-12T14:09:59.181Z,21.93
2022-09-12T14:12:41.429Z,22.18
2022-09-12T14:15:25.248Z,22.22
2022-09-12T14:18:01.354Z,21.52
2022-09-12T14:20:36.289Z,22.43
2022-09-12T14:23:27.580Z,22.84
2022-09-12T14:25:58.711Z,22.72
2022-09-12T14:28:29.120Z,22.75
2022-09-12T14:31:07.607Z,22.84
2022-09-12T14:33:52.186Z,22.84
2022-09-12T14:36:51.313Z,22.90
2022-09-12T14:39:40.131Z,23.12
2022-09-12T14:42:27.114Z,23.39
2022-09-12T14:45:06.441Z,21.69
2022-09-12T14:47:42.849Z,22.56
2022-09-12T14:50:26.223Z,22.68
2022-09-12T14:53:19.827Z,22.83
2022-09-12T14:56:14.168Z,22.70
2022-09-12T14:58:42.839Z,22.63
2022-09-12T15:01:10.867Z,22.76
2022-09-12T15:03:44.902Z,22.56
2022-09-12T15:06:32.664Z,22.69
2022-09-12T15:09:08.407Z,22.98
2022-09-12T15:11:36.681Z,22.74
2022-09-12T15:14:14.974Z,21.35
2022-09-12T15:16:43.100Z,22.31
2022-09-12T15:19:11.379Z,22.19
2022-09-12T15:21:39.538Z,22.32
2022-09-12T15:24:09.504Z,22.40
2022-09-12T15:26:37.626Z,22.19
2022-09-12T15:29:05.853Z,22.40
2022-09-12T15:31:34.043Z,22.33
2022-09-12T15:34:03.192Z,22.44
2022-09-12T15:36:31.485Z,22.67
2022-09-12T15:38:59.690Z,22.70
2022-09-12T15:41:38.188Z,21.89
2022-09-12T15:44:12.288Z,22.18
2022-09-12T15:46:40.803Z,22.26
2022-09-12T15:49:08.976Z,22.30
2022-09-12T15:51:37.209Z,22.02
2022-09-12T15:54:05.411Z,22.31
2022-09-12T15:56:33.531Z,22.27
2022-09-12T15:59:01.837Z,22.42
2022-09-12T16:01:30.052Z,22.31
2022-09-12T16:03:58.614Z,22.38
2022-09-12T16:06:27.996Z,22.49
2022-09-12T16:08:56.133Z,22.39
2022-09-12T16:11:27.042Z,22.66
2022-09-12T16:13:56.857Z,22.80
2022-09-12T16:16:25.129Z,22.88
2022-09-12T16:18:53.306Z,22.44
2022-09-12T16:21:21.513Z,22.66
2022-09-12T16:23:50.826Z,22.71
2022-09-12T16:26:19.056Z,22.76
2022-09-12T16:28:47.809Z,22.80
2022-09-12T16:31:16.077Z,22.80
2022-09-12T16:33:44.397Z,22.89
2022-09-12T16:36:15.243Z,22.85
2022-09-12T16:38:52.255Z,22.80
2022-09-12T16:41:27.121Z,22.82
2022-09-12T16:43:55.558Z,22.73
2022-09-12T16:46:30.628Z,22.68
2022-09-12T16:48:59.481Z,22.64
2022-09-12T16:51:32.662Z,21.84
2022-09-12T16:54:00.936Z,21.71
2022-09-12T16:56:29.564Z,21.85
2022-09-12T16:58:57.721Z,22.03
2022-09-12T17:01:26.785Z,21.89
2022-09-12T17:03:58.304Z,21.76
2022-09-12T17:06:28.505Z,21.43
2022-09-12T17:09:00.998Z,20.95
2022-09-12T17:11:39.333Z,21.01
2022-09-12T17:14:08.933Z,21.04
2022-09-12T17:16:41.849Z,21.22
2022-09-12T17:19:17.265Z,20.99
2022-09-12T17:21:50.179Z,20.79
2022-09-12T17:24:18.927Z,20.78
2022-09-12T17:26:47.428Z,20.67
2022-09-12T17:29:16.990Z,20.68
2022-09-12T17:31:46.643Z,20.50
2022-09-12T17:34:16.404Z,20.54
2022-09-12T17:36:45.431Z,20.76
2022-09-12T17:39:15.096Z,20.74
2022-09-12T17:41:46.165Z,20.57
2022-09-12T17:44:15.945Z,20.61
2022-09-12T17:46:44.276Z,20.62
2022-09-12T17:49:16.901Z,20.24
2022-09-12T17:51:45.732Z,20.53
2022-09-12T17:54:17.372Z,20.12
2022-09-12T17:56:49.027Z,19.67
2022-09-12T17:59:24.017Z,19.77
2022-09-12T18:02:10.739Z,19.83
2022-09-12T18:04:40.988Z,19.51
2022-09-12T18:07:09.268Z,19.37
2022-09-12T18:09:37.495Z,19.51
2022-09-12T18:12:05.997Z,19.64
2022-09-12T18:14:34.983Z,19.49
2022-09-12T18:17:03.678Z,18.86
2022-09-12T18:19:32.020Z,18.91
2022-09-12T18:22:00.177Z,19.08
2022-09-12T18:24:29.027Z,19.00
2022-09-12T18:26:57.267Z,18.81
2022-09-12T18:29:27.710Z,18.86
2022-09-12T18:31:56.143Z,18.72
2022-09-12T18:34:24.416Z,18.76
2022-09-12T18:36:55.059Z,18.75
2022-09-12T18:39:27.436Z,18.95
2022-09-12T18:41:56.405Z,18.92
2022-09-12T18:44:24.608Z,18.94
2022-09-12T18:46:52.952Z,18.90
2022-09-12T18:49:21.236Z,18.94
2022-09-12T18:51:49.442Z,18.38
2022-09-12T18:54:18.049Z,18.56
2022-09-12T18:56:46.321Z,18.64
2022-09-12T18:59:14.994Z,18.68
2022-09-12T19:01:44.104Z,18.54
2022-09-12T19:04:14.214Z,18.35
2022-09-12T19:06:48.170Z,18.43
2022-09-12T19:09:20.759Z,18.23
2022-09-12T19:11:49.871Z,18.11
2022-09-12T19:14:24.925Z,17.95
2022-09-12T19:16:53.644Z,18.09
2022-09-12T19:19:21.792Z,18.11
2022-09-12T19:21:49.923Z,17.83
2022-09-12T19:24:18.585Z,17.64
2022-09-12T19:26:47.076Z,17.81
2022-09-12T19:29:16.942Z,17.82
2022-09-12T19:31:46.035Z,17.72
2022-09-12T19:34:14.906Z,17.67
2022-09-12T19:36:45.736Z,17.43
2022-09-12T19:39:17.544Z,17.30
2022-09-12T19:41:46.364Z,17.29
2022-09-12T19:44:14.888Z,17.29
2022-09-12T19:46:43.465Z,17.36
2022-09-12T19:49:13.143Z,17.19
2022-09-12T19:51:41.415Z,17.04
2022-09-12T19:54:09.735Z,16.95
2022-09-12T19:56:38.375Z,16.90
2022-09-12T19:59:06.667Z,17.08
2022-09-12T20:01:37.251Z,16.95
2022-09-12T20:04:08.071Z,16.99
2022-09-12T20:06:36.844Z,16.88
2022-09-12T20:09:05.183Z,16.91
2022-09-12T20:11:33.441Z,16.60
2022-09-12T20:14:01.679Z,16.73
2022-09-12T20:16:30.321Z,16.66
2022-09-12T20:19:02.559Z,16.76
2022-09-12T20:21:32.707Z,16.54
2022-09-12T20:24:08.328Z,16.65
2022-09-12T20:26:36.492Z,16.60
2022-09-12T20:29:06.441Z,16.54
2022-09-12T20:31:36.673Z,16.45
2022-09-12T20:34:06.703Z,16.46
2022-09-12T20:36:34.911Z,16.26
2022-09-12T20:39:03.651Z,16.24
2022-09-12T20:41:38.051Z,16.16
2022-09-12T20:44:06.255Z,16.31
2022-09-12T20:46:34.467Z,16.18
2022-09-12T20:49:02.961Z,15.97
2022-09-12T20:51:31.188Z,16.02
2022-09-12T20:54:05.608Z,15.86
2022-09-12T20:56:36.638Z,15.99
2022-09-12T20:59:05.752Z,16.16
2022-09-12T21:01:34.336Z,15.94
2022-09-12T21:04:03.070Z,15.88
2022-09-12T21:06:31.727Z,15.79
2022-09-12T21:09:00.664Z,15.86
2022-09-12T21:11:29.480Z,15.87
2022-09-12T21:13:57.986Z,15.64
2022-09-12T21:16:26.242Z,15.49
2022-09-12T21:18:58.562Z,15.60
2022-09-12T21:21:27.289Z,15.47
2022-09-12T21:24:02.960Z,15.59
2022-09-12T21:26:31.946Z,15.52
2022-09-12T21:29:00.192Z,15.42
2022-09-12T21:31:28.420Z,15.44
2022-09-12T21:33:56.612Z,15.51
2022-09-12T21:36:25.303Z,15.43
2022-09-12T21:38:53.513Z,15.26
2022-09-12T21:41:21.647Z,15.06
2022-09-12T21:43:49.909Z,15.10
2022-09-12T21:46:18.657Z,15.02
2022-09-12T21:48:46.984Z,15.18
2022-09-12T21:51:15.121Z,15.39
2022-09-12T21:53:43.309Z,15.17
2022-09-12T21:56:11.507Z,15.13
2022-09-12T21:58:39.882Z,15.13
2022-09-12T22:01:10.651Z,15.16
2022-09-12T22:03:39.396Z,14.98
2022-09-12T22:06:07.843Z,15.01
2022-09-12T22:08:37.810Z,14.99
2022-09-12T22:11:09.739Z,15.03
2022-09-12T22:13:42.032Z,15.14
2022-09-12T22:16:10.660Z,14.74
2022-09-12T22:18:39.209Z,14.74
2022-09-12T22:21:14.926Z,14.72
2022-09-12T22:24:02.575Z,14.86
2022-09-12T22:26:36.436Z,14.70
2022-09-12T22:29:04.616Z,14.66
2022-09-12T22:31:33.627Z,14.64
2022-09-12T22:34:01.849Z,14.71
2022-09-12T22:36:31.601Z,14.61
2022-09-12T22:39:00.542Z,14.75
2022-09-12T22:41:28.871Z,14.64
2022-09-12T22:43:57.842Z,14.60
2022-09-12T22:46:26.141Z,14.52
2022-09-12T22:48:55.761Z,14.51
2022-09-12T22:51:24.106Z,14.60
2022-09-12T22:53:52.484Z,14.46
2022-09-12T22:56:21.206Z,14.45
2022-09-12T22:58:49.740Z,14.49
2022-09-12T23:01:18.550Z,14.56
2022-09-12T23:03:46.925Z,14.62
2022-09-12T23:06:15.538Z,14.43
2022-09-12T23:08:43.720Z,14.59
2022-09-12T23:11:19.186Z,14.54
2022-09-12T23:13:50.023Z,14.44
2022-09-12T23:16:26.362Z,14.50
2022-09-12T23:18:54.564Z,14.53
2022-09-12T23:21:22.777Z,14.61
2022-09-12T23:23:51.204Z,14.61
2022-09-12T23:26:27.993Z,14.49
2022-09-12T23:29:00.860Z,14.51
2022-09-12T23:31:32.164Z,14.69
2022-09-12T23:34:06.022Z,14.81
2022-09-12T23:36:34.398Z,14.64
2022-09-12T23:39:02.852Z,14.49
2022-09-12T23:41:31.251Z,14.35
2022-09-12T23:43:59.490Z,14.39
2022-09-12T23:46:27.687Z,14.33
2022-09-12T23:48:55.818Z,14.41
2022-09-12T23:51:23.990Z,14.41
2022-09-12T23:53:52.111Z,14.44
2022-09-12T23:56:22.110Z,14.49
2022-09-12T23:58:50.315Z,14.41
